Terminal Aerodrome Forecast
Issued by NWS Charleston, WV

Current Version | Previous Version | Graphics & Text | Print | Product List | Glossary On
Versions: 1 2 3 4 5 6 7 8 9 10 11 12 13 14 15 16 17 18 19 20 21 22 23 24 25 26 27 28
000
FTUS41 KRLX 191700
TAFBKW
TAF
KBKW 191730Z 1918/2018 24005KT 6SM -SHRA BR VCTS SCT012 BKN025CB
      TEMPO 1918/1921 3SM -SHRA BR BKN012
     FM192100 24005G17KT 4SM -TSRA BR BKN015 OVC025CB
     FM200200 VRB03KT 6SM BR BKN012 OVC040
     FM200600 20004KT 4SM BR BKN004=

USA.gov is the U.S. government's official web portal to all federal, state and local government web resources and services.